createdAt,value
2022-10-08T00:04:07.109Z,66.90
2022-10-08T00:09:09.924Z,60.46
2022-10-08T00:14:13.123Z,53.07
2022-10-08T00:19:16.429Z,54.54
2022-10-08T00:24:21.317Z,56.00
2022-10-08T00:29:24.614Z,57.22
2022-10-08T00:34:27.772Z,58.28
2022-10-08T00:39:30.554Z,59.44
2022-10-08T00:44:57.812Z,60.62
2022-10-08T00:50:05.293Z,68.36
2022-10-08T00:55:10.088Z,60.08
2022-10-08T01:00:25.694Z,53.27
2022-10-08T01:05:41.073Z,54.55
2022-10-08T01:10:58.648Z,56.00
2022-10-08T01:16:39.044Z,57.16
2022-10-08T01:21:49.773Z,58.48
2022-10-08T01:27:20.825Z,59.87
2022-10-08T01:32:35.143Z,68.17
2022-10-08T01:37:41.964Z,59.71
2022-10-08T01:42:46.344Z,52.98
2022-10-08T01:47:51.161Z,54.02
2022-10-08T01:53:00.828Z,55.47
2022-10-08T01:58:08.431Z,56.84
2022-10-08T02:03:11.442Z,58.24
2022-10-08T02:08:14.504Z,59.39
2022-10-08T02:13:18.140Z,60.26
2022-10-08T02:18:35.714Z,67.74
2022-10-08T02:23:46.295Z,59.62
2022-10-08T02:29:01.428Z,52.70
2022-10-08T02:34:11.881Z,54.22
2022-10-08T02:39:19.246Z,55.82
2022-10-08T02:44:37.041Z,57.04
2022-10-08T02:49:43.709Z,58.40
2022-10-08T02:54:50.483Z,59.68
2022-10-08T02:59:53.608Z,60.52
2022-10-08T03:05:01.714Z,68.29
2022-10-08T03:10:07.076Z,60.63
2022-10-08T03:15:13.294Z,52.35
2022-10-08T03:20:16.368Z,53.39
2022-10-08T03:25:19.233Z,55.25
2022-10-08T03:30:22.273Z,56.17
2022-10-08T03:35:25.331Z,57.78
2022-10-08T03:40:28.372Z,58.82
2022-10-08T03:45:31.346Z,60.22
2022-10-08T03:50:34.191Z,68.31
2022-10-08T03:55:37.119Z,60.24
2022-10-08T04:00:40.914Z,51.99
2022-10-08T04:05:49.388Z,53.03
2022-10-08T04:10:53.370Z,54.71
2022-10-08T04:16:01.445Z,55.63
2022-10-08T04:21:07.488Z,57.31
2022-10-08T04:26:13.033Z,58.26
2022-10-08T04:31:21.978Z,59.42
2022-10-08T04:36:25.829Z,60.50
2022-10-08T04:41:28.913Z,68.88
2022-10-08T04:46:31.913Z,60.47
2022-10-08T04:51:34.849Z,52.57
2022-10-08T04:56:37.795Z,53.27
2022-10-08T05:01:41.238Z,57.42
2022-10-08T05:06:44.185Z,57.75
2022-10-08T05:11:47.112Z,57.32
2022-10-08T05:16:49.959Z,58.15
2022-10-08T05:21:52.771Z,59.09
2022-10-08T05:26:59.377Z,60.22
2022-10-08T05:32:03.897Z,67.95
2022-10-08T05:37:06.782Z,59.93
2022-10-08T05:42:09.915Z,52.55
2022-10-08T05:47:12.781Z,53.94
2022-10-08T05:52:15.864Z,55.48
2022-10-08T05:57:18.847Z,57.00
2022-10-08T06:02:22.353Z,57.98
2022-10-08T06:07:25.371Z,59.49
2022-10-08T06:12:28.385Z,67.73
2022-10-08T06:17:32.605Z,60.92
2022-10-08T06:22:35.927Z,53.84
2022-10-08T06:27:38.777Z,54.81
2022-10-08T06:32:41.579Z,57.78
2022-10-08T06:37:48.451Z,57.16
2022-10-08T06:42:52.026Z,58.22
2022-10-08T06:47:54.905Z,60.21
2022-10-08T06:52:57.786Z,67.10
2022-10-08T06:58:02.033Z,61.53
2022-10-08T07:03:05.149Z,53.80
2022-10-08T07:08:07.981Z,55.00
2022-10-08T07:13:10.873Z,57.54
2022-10-08T07:18:13.845Z,58.77
2022-10-08T07:23:16.968Z,63.91
2022-10-08T07:28:20.010Z,62.19
2022-10-08T07:33:23.017Z,57.24
2022-10-08T07:38:25.827Z,56.09
2022-10-08T07:43:28.675Z,55.09
2022-10-08T07:48:34.018Z,56.17
2022-10-08T07:53:38.047Z,57.17
2022-10-08T07:58:41.963Z,58.48
2022-10-08T08:03:45.347Z,59.58
2022-10-08T08:08:48.302Z,60.57
2022-10-08T08:13:52.249Z,66.96
2022-10-08T08:18:57.935Z,58.83
2022-10-08T08:24:06.106Z,54.24
2022-10-08T08:29:14.884Z,55.14
2022-10-08T08:34:24.385Z,56.05
2022-10-08T08:39:28.700Z,57.48
2022-10-08T08:44:43.660Z,58.34
2022-10-08T08:49:52.453Z,58.45
2022-10-08T08:54:55.540Z,66.56
2022-10-08T09:00:07.563Z,61.86
2022-10-08T09:05:17.343Z,50.08
2022-10-08T09:10:29.413Z,50.12
2022-10-08T09:15:37.097Z,49.78
2022-10-08T09:20:41.063Z,50.95
2022-10-08T09:26:08.155Z,50.77
2022-10-08T09:31:23.096Z,51.45
2022-10-08T09:36:31.499Z,52.04
2022-10-08T09:41:34.428Z,53.19
2022-10-08T09:46:37.513Z,55.54
2022-10-08T09:51:43.019Z,53.66
2022-10-08T09:56:53.977Z,53.52
2022-10-08T10:01:58.179Z,53.58
2022-10-08T10:07:01.551Z,52.96
2022-10-08T10:12:17.591Z,53.79
2022-10-08T10:17:38.587Z,53.82
2022-10-08T10:22:50.480Z,53.04
2022-10-08T10:28:02.892Z,52.31
2022-10-08T10:33:15.886Z,51.61
2022-10-08T10:38:27.777Z,51.34
2022-10-08T10:43:49.501Z,51.71
2022-10-08T10:48:52.586Z,51.24
2022-10-08T10:54:16.342Z,51.05
2022-10-08T10:59:45.399Z,50.51
2022-10-08T11:05:19.312Z,50.82
2022-10-08T11:10:49.025Z,50.54
2022-10-08T11:16:05.945Z,51.08
2022-10-08T11:21:17.864Z,50.77
2022-10-08T11:26:37.969Z,50.45
2022-10-08T11:31:44.346Z,50.29
2022-10-08T11:37:15.055Z,51.00
2022-10-08T11:42:29.127Z,50.94
2022-10-08T11:47:36.323Z,50.72
2022-10-08T11:52:39.407Z,50.54
2022-10-08T11:58:06.743Z,51.17
2022-10-08T12:03:40.331Z,51.76
2022-10-08T12:09:21.480Z,51.29
2022-10-08T12:14:24.307Z,51.19
2022-10-08T12:19:32.688Z,51.20
2022-10-08T12:24:38.341Z,51.42
2022-10-08T12:30:03.429Z,51.62
2022-10-08T12:35:26.328Z,51.43
2022-10-08T12:40:44.070Z,51.14
2022-10-08T12:45:55.659Z,51.11
2022-10-08T12:51:30.304Z,50.98
2022-10-08T12:56:33.158Z,50.44
2022-10-08T13:01:36.443Z,50.88
2022-10-08T13:06:39.457Z,50.93
2022-10-08T13:11:42.798Z,50.30
2022-10-08T13:16:47.406Z,50.37
2022-10-08T13:21:58.971Z,50.51
2022-10-08T13:27:02.098Z,50.36
2022-10-08T13:32:18.485Z,50.19
2022-10-08T13:37:21.348Z,50.77
2022-10-08T13:42:28.603Z,51.10
2022-10-08T13:47:31.467Z,51.13
2022-10-08T13:52:35.431Z,51.35
2022-10-08T13:57:38.282Z,51.71
2022-10-08T14:02:41.247Z,51.96
2022-10-08T14:07:46.554Z,52.24
2022-10-08T14:12:49.765Z,52.52
2022-10-08T14:17:53.585Z,52.83
2022-10-08T14:22:56.449Z,53.15
2022-10-08T14:28:00.054Z,53.34
2022-10-08T14:33:04.753Z,53.61
2022-10-08T14:38:10.596Z,53.82
2022-10-08T14:43:13.463Z,54.11
2022-10-08T14:48:16.666Z,54.36
2022-10-08T14:53:19.523Z,54.59
2022-10-08T14:58:22.455Z,54.97
2022-10-08T15:03:26.206Z,55.28
2022-10-08T15:08:29.307Z,55.86
2022-10-08T15:13:32.656Z,56.14
2022-10-08T15:18:35.890Z,56.59
2022-10-08T15:23:38.752Z,56.87
2022-10-08T15:28:43.374Z,57.45
2022-10-08T15:33:48.829Z,57.63
2022-10-08T15:39:18.051Z,58.03
2022-10-08T15:44:25.308Z,58.02
2022-10-08T15:49:37.215Z,58.65
2022-10-08T15:54:41.399Z,58.90
2022-10-08T15:59:44.450Z,59.10
2022-10-08T16:04:47.924Z,59.33
2022-10-08T16:09:51.144Z,59.54
2022-10-08T16:14:54.111Z,59.79
2022-10-08T16:19:57.558Z,60.00
2022-10-08T16:25:00.477Z,60.34
2022-10-08T16:30:04.160Z,60.37
2022-10-08T16:35:07.422Z,60.53
2022-10-08T16:40:10.949Z,60.71
2022-10-08T16:45:13.938Z,60.81
2022-10-08T16:50:20.075Z,60.96
2022-10-08T16:55:23.097Z,61.08
2022-10-08T17:00:26.087Z,61.14
2022-10-08T17:05:29.299Z,61.33
2022-10-08T17:10:32.540Z,61.48
2022-10-08T17:15:36.975Z,61.55
2022-10-08T17:20:41.349Z,61.69
2022-10-08T17:25:44.253Z,61.91
2022-10-08T17:30:47.197Z,62.06
2022-10-08T17:35:59.219Z,62.15
2022-10-08T17:41:14.256Z,62.19
2022-10-08T17:46:28.551Z,67.49
2022-10-08T17:51:32.656Z,57.57
2022-10-08T17:56:35.664Z,55.71
2022-10-08T18:01:41.434Z,56.50
2022-10-08T18:06:48.809Z,57.54
2022-10-08T18:11:53.571Z,58.42
2022-10-08T18:16:57.549Z,59.44
2022-10-08T18:22:00.564Z,60.01
2022-10-08T18:27:06.613Z,60.71
2022-10-08T18:32:09.525Z,61.56
2022-10-08T18:37:12.447Z,61.74
2022-10-08T18:42:15.315Z,67.39
2022-10-08T18:47:18.204Z,58.74
2022-10-08T18:52:27.240Z,54.45
2022-10-08T18:57:30.299Z,56.02
2022-10-08T19:02:33.417Z,57.89
2022-10-08T19:07:36.569Z,59.88
2022-10-08T19:12:39.499Z,61.04
2022-10-08T19:17:42.440Z,65.90
2022-10-08T19:22:45.931Z,59.72
2022-10-08T19:27:49.066Z,54.14
2022-10-08T19:32:52.348Z,56.01
2022-10-08T19:37:55.248Z,57.87
2022-10-08T19:42:58.174Z,58.97
2022-10-08T19:48:00.997Z,60.09
2022-10-08T19:53:04.413Z,60.93
2022-10-08T19:58:07.518Z,66.98
2022-10-08T20:03:10.438Z,59.59
2022-10-08T20:08:13.356Z,53.95
2022-10-08T20:13:16.236Z,55.47
2022-10-08T20:18:19.137Z,57.35
2022-10-08T20:23:22.288Z,58.65
2022-10-08T20:28:25.235Z,60.01
2022-10-08T20:33:28.203Z,60.78
2022-10-08T20:38:31.075Z,67.88
2022-10-08T20:43:36.558Z,59.48
2022-10-08T20:48:41.394Z,53.54
2022-10-08T20:53:49.319Z,54.94
2022-10-08T20:58:52.907Z,56.34
2022-10-08T21:03:56.289Z,57.45
2022-10-08T21:08:59.539Z,58.42
2022-10-08T21:14:03.687Z,59.87
2022-10-08T21:19:12.734Z,61.11
2022-10-08T21:24:15.826Z,67.19
2022-10-08T21:29:18.887Z,59.19
2022-10-08T21:34:21.886Z,53.86
2022-10-08T21:39:24.729Z,55.27
2022-10-08T21:44:27.632Z,56.66
2022-10-08T21:49:30.689Z,57.68
2022-10-08T21:54:33.977Z,59.37
2022-10-08T21:59:37.187Z,60.39
2022-10-08T22:04:40.279Z,66.64
2022-10-08T22:09:43.131Z,58.88
2022-10-08T22:14:46.194Z,54.25
2022-10-08T22:19:49.220Z,55.90
2022-10-08T22:24:54.703Z,57.24
2022-10-08T22:29:57.607Z,59.00
2022-10-08T22:35:00.438Z,60.44
2022-10-08T22:40:03.972Z,66.24
2022-10-08T22:45:07.461Z,59.40
2022-10-08T22:50:10.427Z,54.02
2022-10-08T22:55:14.337Z,55.81
2022-10-08T23:00:17.315Z,57.17
2022-10-08T23:05:20.294Z,58.09
2022-10-08T23:10:24.107Z,60.05
2022-10-08T23:15:26.950Z,60.98
2022-10-08T23:20:29.820Z,66.41
2022-10-08T23:25:32.806Z,58.58
2022-10-08T23:30:43.113Z,53.18
2022-10-08T23:35:54.599Z,54.49
2022-10-08T23:41:02.442Z,55.39
2022-10-08T23:46:07.604Z,56.39
2022-10-08T23:51:12.562Z,57.37
2022-10-08T23:56:15.896Z,58.21
